Nearby METAR Reports

Sorted by Distance from Carson Valley Weather Station - Minden, Nevada

 

KMEV - Minden, Nevada, USA
Distance from station: SSW 3mi, 5km
Updated: Thu, 18-Jul-2019 8:35am PDT
Clear
Clear
 Wind from S
Wind: S 3 mph , 6 km/h
Temperature: 68°F , 20°C
Dew Point: 46°F , 8°C
Humidity: 46%
Barometer: 30.09 inHg , 1019 hPa
Clouds: Clear
Visibility: 10 miles , 16 km
2019/07/18 15:35 KMEV 181535Z AUTO 18003KT 10SM CLR 20/08 A3009 RMK AO2
KCXP - Carson City, Nevada, USA
Distance from station: N 10mi, 16km
Updated: Thu, 18-Jul-2019 8:35am PDT
Clear
Clear
 Wind from calm
Wind: Calm
Temperature: 72°F , 22°C
Dew Point: 45°F , 7°C
Humidity: 38%
Barometer: 30.07 inHg , 1018.3 hPa
Clouds: Clear
Visibility: 10 miles , 16 km
2019/07/18 15:35 KCXP 181535Z AUTO 00000KT 10SM CLR 22/07 A3007 RMK AO2
 
KTVL - South Lake Tahoe, California, USA
Distance from station: WSW 18mi, 29km
Updated: Thu, 18-Jul-2019 7:53am PDT
Clear
Clear
 Wind from calm
Wind: Calm
Temperature: 55°F , 13°C
Dew Point: 43°F , 6°C
Humidity: 63%
Barometer: 30.18 inHg , 1022 hPa
Clouds: Clear
Visibility: 10 miles , 16 km
2019/07/18 14:53 KTVL 181453Z AUTO 00000KT 10SM CLR 13/06 A3018 RMK AO2 SLP162 T01280056 53002
KTRK - Truckee Tahoe, California, USA
Distance from station: NW 29mi, 46km
Updated: Thu, 18-Jul-2019 7:50am PDT
Clear
Clear
 Wind from calm
Wind: Calm
Temperature: 54°F , 12°C
Dew Point: 45°F , 7°C
Humidity: 72%
Barometer: 30.17 inHg , 1021.7 hPa
Clouds: Clear
Visibility: 10 miles , 16 km
2019/07/18 14:50 KTRK 181450Z 00000KT 10SM SKC 12/07 A3017
 
KRNO - Reno, Nevada, USA
Distance from station: N 32mi, 51km
Updated: Thu, 18-Jul-2019 7:55am PDT
Partly cloudy
Partly cloudy
 Wind from calm
Wind: Calm
Temperature: 68°F , 20°C
Dew Point: 43°F , 6°C
Humidity: 40%
Barometer: 30.06 inHg , 1017.9 hPa
Clouds: Partly cloudy
Visibility: 10 miles , 16 km
Cloud details: Partly cloudy 25000 ft
2019/07/18 14:55 KRNO 181455Z 00000KT 10SM SCT250 20/06 A3006 RMK AO2 SLP122 T02000061 53008 $
KRTS - Reno/Stead, Nevada, USA
Distance from station: NNW 44mi, 71km
Updated: Thu, 18-Jul-2019 8:35am PDT
Clear
Clear
 Wind from WNW
Wind: WNW 10 mph , 17 km/h
Temperature: 73°F , 23°C
Dew Point: 41°F , 5°C
Humidity: 31%
Barometer: 30.11 inHg , 1019.6 hPa
Clouds: Clear
Visibility: 10 miles , 16 km
2019/07/18 15:35 KRTS 181535Z AUTO 29009KT 10SM CLR 23/05 A3011 RMK AO2
 
KBAN - Bridgeport(Mcmwt, California, USA
Distance from station: SSE 49mi, 79km
Updated: Thu, 18-Jul-2019 7:52am PDT
Clear
Clear
 Wind from calm
Wind: Calm
Temperature: 66°F , 19°C
Dew Point: 39°F , 4°C
Humidity: 37%
Barometer: 30.18 inHg , 1022 hPa
Clouds: Clear
Visibility: 10 miles , 16 km
2019/07/18 14:52 KBAN 181452Z AUTO 00000KT 10SM CLR 19/04 A3018 RMK AO2 SLP094 T01890039 58000 $
KBLU - Emigrant Gap, California, USA
Distance from station: WNW 55mi, 89km
Updated: Thu, 18-Jul-2019 7:52am PDT
Clear
Clear
 Wind from S
Wind: S 7 mph , 11 km/h
Temperature: 64°F , 18°C
Dew Point: 52°F , 11°C
Humidity: 64%
Barometer: 30.15 inHg , 1021 hPa
Clouds: Clear
Visibility: 10 miles , 16 km
2019/07/18 14:52 KBLU 181452Z AUTO 17006KT 10SM CLR 18/11 A3015 RMK AO2 SLP118 T01830106 53006
 
KPVF - Placerville, California, USA
Distance from station: WSW 60mi, 96km
Updated: Thu, 18-Jul-2019 8:35am PDT
Clear
Clear
 Wind from SSE
Wind: SSE 7 mph , 11 km/h
Temperature: 75°F , 24°C
Dew Point: 54°F , 12°C
Humidity: 47%
Barometer: 30.00 inHg , 1015.9 hPa
Clouds: Clear
Visibility: 10 miles , 16 km
2019/07/18 15:35 KPVF 181535Z AUTO 16006KT 10SM CLR 24/12 A3000 RMK AO1
KNFL - Fallon Nas, Nevada, USA
Distance from station: ENE 61mi, 97km
Updated: Thu, 18-Jul-2019 7:56am PDT
Partly cloudy
Partly cloudy
 Wind from W
Wind: W 5 mph , 7 km/h
Temperature: 75°F , 24°C
Dew Point: 39°F , 4°C
Humidity: 27%
Barometer: 30.02 inHg , 1016.6 hPa
Clouds: Partly cloudy
Visibility: 10 miles , 16 km
Cloud details: Partly cloudy 25000 ft
2019/07/18 14:56 KNFL 181456Z 27004KT 10SM SCT250 24/04 A3002 RMK AO2 SLP134 T02390039 51007
 
KHTH - Hawthorne, Nevada, USA
Distance from station: ESE 68mi, 109km
Updated: Thu, 18-Jul-2019 8:35am PDT
Clear
Clear
 Wind from calm
Wind: Calm
Temperature: 77°F , 25°C
Dew Point: 43°F , 6°C
Humidity: 30%
Barometer: 30.04 inHg , 1017.3 hPa
Clouds: Clear
Visibility: 10 miles , 16 km
2019/07/18 15:35 KHTH 181535Z AUTO 00000KT 10SM CLR 25/06 A3004 RMK A01
KGOO - Grass Valley, California, USA
Distance from station: W 70mi, 112km
Updated: Thu, 18-Jul-2019 8:35am PDT
Clear
Clear
 Wind from SSE
Wind: SSE 6 mph , 9 km/h
Temperature: 73°F , 23°C
Dew Point: 55°F , 13°C
Humidity: 53%
Barometer: 30.01 inHg , 1016.3 hPa
Clouds: Clear
Visibility: 10 miles , 16 km
2019/07/18 15:35 KGOO 181535Z AUTO 15005KT 10SM CLR 23/13 A3001 RMK A01
 
KAUN - Auburn Muni, California, USA
Distance from station: W 73mi, 118km
Updated: Thu, 18-Jul-2019 8:35am PDT
Clear
Clear
 Wind from calm
Wind: Calm
Temperature: 79°F , 26°C
Dew Point: 57°F , 14°C
Humidity: 48%
Barometer: 29.94 inHg , 1013.9 hPa
Clouds: Clear
Visibility: 10 miles , 16 km
2019/07/18 15:35 KAUN 181535Z AUTO 00000KT 10SM CLR 26/14 A2994 RMK A01
KO22 - Columbia, California, USA
Distance from station: SSW 79mi, 127km
Updated: Thu, 18-Jul-2019 8:35am PDT
Clear
Clear
 Wind from calm
Wind: Calm
Temperature: 79°F , 26°C
Dew Point: 57°F , 14°C
Humidity: 48%
Barometer: 29.98 inHg , 1015.2 hPa
Clouds: Clear
Visibility: 10 miles , 16 km
2019/07/18 15:35 KO22 181535Z AUTO 00000KT 10SM CLR 26/14 A2998 RMK A01
 
KLHM - Lincoln, California, USA
Distance from station: W 88mi, 141km
Updated: Thu, 18-Jul-2019 8:35am PDT
Clear
Clear
 Wind from S
Wind: S 6 mph , 9 km/h
Temperature: 73°F , 23°C
Dew Point: 54°F , 12°C
Humidity: 50%
Barometer: 29.88 inHg , 1011.9 hPa
Clouds: Clear
Visibility: 10 miles , 16 km
2019/07/18 15:35 KLHM 181535Z AUTO 17005KT 10SM CLR 23/12 A2988 RMK AO1
KBAB - Beale Afb/Marysv, California, USA
Distance from station: W 91mi, 147km
Updated: Thu, 18-Jul-2019 7:58am PDT
Clear
Clear
 Wind from SSE
Wind: SSE 13 mph , 20 km/h
Temperature: 75°F , 24°C
Dew Point: 55°F , 13°C
Humidity: 50%
Barometer: 29.86 inHg , 1011.2 hPa
Clouds: Clear
Visibility: 10 miles , 16 km
2019/07/18 14:58 KBAB 181458Z AUTO 16011KT 10SM CLR 24/13 A2986 RMK AO2 SLPNO T02410133 $
 
KMHR - Mather Field, California, USA
Distance from station: WSW 91mi, 147km
Updated: Thu, 18-Jul-2019 7:45am PDT
Clear
Clear
 Wind from SSW
Wind: SSW 5 mph , 7 km/h
Temperature: 68°F , 20°C
Dew Point: 57°F , 14°C
Humidity: 69%
Barometer: 29.87 inHg , 1011.5 hPa
Clouds: Clear
Visibility: 10 miles , 16 km
2019/07/18 14:45 KMHR 181445Z 21004KT 10SM SKC 20/14 A2987
KLOL - Lovelock, Nevada, USA
Distance from station: NE 94mi, 151km
Updated: Thu, 18-Jul-2019 7:53am PDT
Clear
Clear
 Wind from calm
Wind: Calm
Temperature: 73°F , 23°C
Dew Point: 46°F , 8°C
Humidity: 38%
Barometer: 30.01 inHg , 1016.3 hPa
Clouds: Clear
Visibility: 10 miles , 16 km
2019/07/18 14:53 KLOL 181453Z AUTO 00000KT 10SM CLR 23/08 A3001 RMK AO2 SLP114 T02330078 51008
 
KMCC - Mcclellan Afb, California, USA
Distance from station: WSW 94mi, 151km
Updated: Thu, 18-Jul-2019 8:40am PDT
Clear
Clear
 Wind from S
Wind: S 8 mph , 13 km/h
Temperature: 72°F , 22°C
Dew Point: 55°F , 13°C
Humidity: 57%
Barometer: 29.90 inHg , 1012.5 hPa
Clouds: Clear
Visibility: 9 miles , 14 km
2019/07/18 15:40 KMCC 181540Z AUTO 17007KT 150V210 9SM CLR 22/13 A2990 RMK AO2
KMYV - Marysville, California, USA
Distance from station: W 99mi, 159km
Updated: Thu, 18-Jul-2019 7:53am PDT
Clear
Clear
 Wind from SSE
Wind: SSE 10 mph , 17 km/h
Temperature: 72°F , 22°C
Dew Point: 55°F , 13°C
Humidity: 57%
Barometer: 29.88 inHg , 1011.9 hPa
Clouds: Clear
Visibility: 10 miles , 16 km
2019/07/18 14:53 KMYV 181453Z AUTO 15009KT 10SM CLR 22/13 A2988 RMK AO2 SLP120 T02170133 53014
 
KSVE - Susanville Muni, California, USA
Distance from station: NNW 102mi, 164km
Updated: Thu, 18-Jul-2019 8:35am PDT
Clear
Clear
 Wind from calm
Wind: Calm
Temperature: 70°F , 21°C
Dew Point: 50°F , 10°C
Humidity: 50%
Barometer: 30.07 inHg , 1018.3 hPa
Clouds: Clear
Visibility: 10 miles , 16 km
2019/07/18 15:35 KSVE 181535Z AUTO 00000KT 10SM CLR 21/10 A3007 RMK AO2
KSAC - Sacramento, California, USA
Distance from station: WSW 103mi, 165km
Updated: Thu, 18-Jul-2019 7:53am PDT
Clear
Clear
 Wind from SSW
Wind: SSW 7 mph , 11 km/h
Temperature: 64°F , 18°C
Dew Point: 55°F , 13°C
Humidity: 73%
Barometer: 29.88 inHg , 1011.9 hPa
Clouds: Clear
Visibility: 10 miles , 16 km
2019/07/18 14:53 KSAC 181453Z 20006KT 10SM CLR 18/13 A2988 RMK AO2 SLP117 T01830133 53012
 
KSMF - Sacramento/Metro, California, USA
Distance from station: WSW 104mi, 167km
Updated: Thu, 18-Jul-2019 7:53am PDT
Few Clouds
Few Clouds
 Wind from S
Wind: S 13 mph , 20 km/h
Temperature: 68°F , 20°C
Dew Point: 55°F , 13°C
Humidity: 64%
Barometer: 29.86 inHg , 1011.2 hPa
Clouds: Few Clouds
Visibility: 10 miles , 16 km
Cloud details: Few Clouds 25000 ft
2019/07/18 14:53 KSMF 181453Z 19011KT 10SM FEW250 20/13 A2986 RMK AO2 SLP112 T02000128 53016
KOVE - Oroville, California, USA
Distance from station: WNW 106mi, 171km
Updated: Thu, 18-Jul-2019 7:53am PDT
Clear
Clear
 Wind from SE
Wind: SE 8 mph , 13 km/h
Temperature: 75°F , 24°C
Dew Point: 55°F , 13°C
Humidity: 50%
Barometer: 29.89 inHg , 1012.2 hPa
Clouds: Clear
Visibility: 10 miles , 16 km
2019/07/18 14:53 KOVE 181453Z AUTO 13007KT 10SM CLR 24/13 A2989 RMK AO2 SLP120 T02440128 51014
 
KMMH - Mammoth/June Lak, California, USA
Distance from station: SSE 110mi, 177km
Updated: Thu, 18-Jul-2019 8:35am PDT
Clear
Clear
 Wind from calm
Wind: Calm
Temperature: 64°F , 18°C
Dew Point: 37°F , 3°C
Humidity: 37%
Barometer: 30.25 inHg , 1024.4 hPa
Clouds: Clear
Visibility: 10 miles , 16 km
2019/07/18 15:35 KMMH 181535Z AUTO 00000KT 10SM CLR 18/03 A3025 RMK AO2 T01770034
KSCK - Stockton, California, USA
Distance from station: SW 114mi, 183km
Updated: Thu, 18-Jul-2019 7:55am PDT
Clear
Clear
 Wind from NW
Wind: NW 3 mph , 6 km/h
Temperature: 73°F , 23°C
Dew Point: 57°F , 14°C
Humidity: 57%
Barometer: 29.88 inHg , 1011.9 hPa
Clouds: Clear
Visibility: 10 miles , 16 km
2019/07/18 14:55 KSCK 181455Z 31003KT 10SM CLR 23/14 A2988 RMK AO2 SLP117 T02280144 53012
 
KEDU - Davis, California, USA
Distance from station: WSW 116mi, 187km
Updated: Thu, 18-Jul-2019 8:35am PDT
Clear
Clear
 Wind from S
Wind: S 8 mph , 13 km/h
Temperature: 70°F , 21°C
Dew Point: 57°F , 14°C
Humidity: 64%
Barometer: 29.87 inHg , 1011.5 hPa
Clouds: Clear
Visibility: 10 miles , 16 km
2019/07/18 15:35 KEDU 181535Z AUTO 17007KT 10SM CLR 21/14 A2987 RMK AO1
KMOD - Modesto, California, USA
Distance from station: SW 119mi, 191km
Updated: Thu, 18-Jul-2019 7:53am PDT
Clear
Clear
 Wind from N
Wind: N 7 mph , 11 km/h
Temperature: 73°F , 23°C
Dew Point: 57°F , 14°C
Humidity: 57%
Barometer: 29.87 inHg , 1011.5 hPa
Clouds: Clear
Visibility: 10 miles , 16 km
2019/07/18 14:53 KMOD 181453Z 36006KT 10SM CLR 23/14 A2987 RMK AO2 SLP115 T02280139 53013
 
KMER - Merced/Castle Af, California, USA
Distance from station: SSW 123mi, 198km
Updated: Thu, 18-Jul-2019 7:45am PDT
Clear
Clear
 Wind from calm
Wind: Calm
Temperature: 73°F , 23°C
Dew Point: 63°F , 17°C
Humidity: 69%
Barometer: 29.89 inHg , 1012.2 hPa
Clouds: Clear
Visibility: 10 miles , 16 km
2019/07/18 14:45 KMER 181445Z 00000KT 10SM SKC 23/17 A2989
KCIC - Chico Municipal, California, USA
Distance from station: WNW 124mi, 199km
Updated: Thu, 18-Jul-2019 7:54am PDT
Few Clouds
Few Clouds
 Wind from ESE
Wind: ESE 8 mph , 13 km/h
Temperature: 77°F , 25°C
Dew Point: 54°F , 12°C
Humidity: 44%
Barometer: 29.88 inHg , 1011.9 hPa
Clouds: Few Clouds
Visibility: 40 miles , 64 km
Cloud details: Few Clouds 25000 ft
2019/07/18 14:54 KCIC 181454Z 12007KT 40SM FEW250 25/12 A2988
 
KMCE - Merced, California, USA
Distance from station: SSW 128mi, 207km
Updated: Thu, 18-Jul-2019 7:53am PDT
Clear
Clear
 Wind from calm
Wind: Calm
Temperature: 72°F , 22°C
Dew Point: 55°F , 13°C
Humidity: 57%
Barometer: 29.88 inHg , 1011.9 hPa
Clouds: Clear
Visibility: 10 miles , 16 km
2019/07/18 14:53 KMCE 181453Z AUTO 00000KT 10SM CLR 22/13 A2988 RMK AO2 SLP117 T02170128 53010
KVCB - Vacaville, California, USA
Distance from station: WSW 128mi, 207km
Updated: Thu, 18-Jul-2019 7:53am PDT
Clear
Clear
 Wind from SSW
Wind: SSW 8 mph , 13 km/h
Temperature: 70°F , 21°C
Dew Point: 55°F , 13°C
Humidity: 60%
Barometer: 29.87 inHg , 1011.5 hPa
Clouds: Clear
Visibility: 10 miles , 16 km
2019/07/18 14:53 KVCB 181453Z AUTO 21007KT 10SM CLR 21/13 A2987 RMK AO2 SLP112 T02110133 53013
 
KSUU - Travis Afb/Fairf, California, USA
Distance from station: WSW 130mi, 209km
Updated: Thu, 18-Jul-2019 7:58am PDT
Clear
Clear
 Wind from WSW
Wind: WSW 20 mph , 31 km/h, Gust: 29 mph , 46 km/h
Temperature: 63°F , 17°C
Dew Point: 55°F , 13°C
Humidity: 77%
Barometer: 29.88 inHg , 1011.9 hPa
Clouds: Clear
Visibility: 10 miles , 16 km
2019/07/18 14:58 KSUU 181458Z AUTO 25017G25KT 10SM CLR 17/13 A2988 RMK AO2 PK WND 24026/04 SLPNO T01720125 $
KBIH - Bishop, California, USA
Distance from station: SE 137mi, 221km
Updated: Thu, 18-Jul-2019 7:56am PDT
Clear
Clear
 Wind from calm
Wind: Calm
Temperature: 72°F , 22°C
Dew Point: 46°F , 8°C
Humidity: 41%
Barometer: 30.04 inHg , 1017.3 hPa
Clouds: Clear
Visibility: 10 miles , 16 km
2019/07/18 14:56 KBIH 181456Z AUTO 00000KT 10SM CLR 22/08 A3004 RMK AO2 SLP118 T02220083 51010
 
KMAE - Madera, California, USA
Distance from station: S 144mi, 231km
Updated: Thu, 18-Jul-2019 7:53am PDT
Clear
Clear
 Wind from N
Wind: N 6 mph , 9 km/h
Temperature: 75°F , 24°C
Dew Point: 54°F , 12°C
Humidity: 47%
Barometer: 29.90 inHg , 1012.5 hPa
Clouds: Clear
Visibility: 10 miles , 16 km
2019/07/18 14:53 KMAE 181453Z AUTO 35005KT 10SM CLR 24/12 A2990 RMK AO2 SLP120 T02390122 53008
KCCR - Concord, California, USA
Distance from station: WSW 145mi, 233km
Updated: Thu, 18-Jul-2019 7:53am PDT
Clear
Clear
 Wind from SSW
Wind: SSW 15 mph , 24 km/h
Temperature: 66°F , 19°C
Dew Point: 54°F , 12°C
Humidity: 64%
Barometer: 29.90 inHg , 1012.5 hPa
Clouds: Clear
Visibility: 10 miles , 16 km
2019/07/18 14:53 KCCR 181453Z 20013KT 10SM CLR 19/12 A2990 RMK AO2 SLP110 T01940122 51007
 
KLVK - Livermore, California, USA
Distance from station: SW 146mi, 236km
Updated: Thu, 18-Jul-2019 7:53am PDT
Clear
Clear
 Wind from W
Wind: W 6 mph , 9 km/h
Temperature: 64°F , 18°C
Dew Point: 55°F , 13°C
Humidity: 73%
Barometer: 29.91 inHg , 1012.9 hPa
Clouds: Clear
Visibility: 10 miles , 16 km
2019/07/18 14:53 KLVK 181453Z 27005KT 10SM CLR 18/13 A2991 RMK AO2 SLP126 T01830128 53008
KAPC - Napa, California, USA
Distance from station: WSW 150mi, 241km
Updated: Thu, 18-Jul-2019 7:54am PDT
Mostly cloudy
Mostly cloudy
 Wind from SSW
Wind: SSW 12 mph , 19 km/h
Temperature: 61°F , 16°C
Dew Point: 55°F , 13°C
Humidity: 83%
Barometer: 29.92 inHg , 1013.2 hPa
Clouds: Mostly cloudy
Visibility: 10 miles , 16 km
Cloud details: Mostly cloudy 700 ft
2019/07/18 14:54 KAPC 181454Z 20010KT 10SM BKN007 16/13 A2992 RMK AO2 SLP122 T01560133 51008
 
KRBL - Red Bluff, California, USA
Distance from station: WNW 155mi, 249km
Updated: Thu, 18-Jul-2019 7:54am PDT
Clear
Clear
 Wind from SE
Wind: SE 6 mph , 9 km/h
Temperature: 77°F , 25°C
Dew Point: 59°F , 15°C
Humidity: 54%
Barometer: 29.88 inHg , 1011.9 hPa
Clouds: Clear
Visibility: 10 miles , 16 km
2019/07/18 14:54 KRBL 181454Z AUTO 14005KT 10SM CLR 25/15 A2988 RMK AO2 SLP114 T02500150 53013
KFAT - Fresno, California, USA
Distance from station: S 156mi, 251km
Updated: Thu, 18-Jul-2019 7:53am PDT
Few Clouds
Few Clouds
 Wind from E
Wind: E 3 mph , 6 km/h
Temperature: 73°F , 23°C
Dew Point: 57°F , 14°C
Humidity: 57%
Barometer: 29.90 inHg , 1012.5 hPa
Clouds: Few Clouds
Visibility: 10 miles , 16 km
Cloud details: Few Clouds 20000 ft
2019/07/18 14:53 KFAT 181453Z 09003KT 10SM FEW200 23/14 A2990 RMK AO2 SLP121 T02330139 51008
 
KTPH - Tonopah, Nevada, USA
Distance from station: ESE 158mi, 254km
Updated: Thu, 18-Jul-2019 7:56am PDT
Clear
Clear
 Wind from calm
Wind: Calm
Temperature: 72°F , 22°C
Dew Point: 30°F , -1°C
Humidity: 22%
Barometer: 30.14 inHg , 1020.7 hPa
Clouds: Clear
Visibility: 10 miles , 16 km
2019/07/18 14:56 KTPH 181456Z AUTO 00000KT 10SM CLR 22/M01 A3014 RMK AO2 SLP118 T02171006 53008
KFCH - Fresno Chandler, California, USA
Distance from station: S 161mi, 258km
Updated: Thu, 18-Jul-2019 8:35am PDT
Clear
Clear
 Wind from calm
Wind: Calm
Temperature: 79°F , 26°C
Dew Point: 55°F , 13°C
Humidity: 45%
Barometer: 29.90 inHg , 1012.5 hPa
Clouds: Clear
Visibility: 10 miles , 16 km
2019/07/18 15:35 KFCH 181535Z AUTO 00000KT 10SM CLR 26/13 A2990 RMK A01
 
KHWD - Hayward, California, USA
Distance from station: SW 161mi, 259km
Updated: Thu, 18-Jul-2019 7:54am PDT
Mostly cloudy
Mostly cloudy
 Wind from calm
Wind: Calm
Temperature: 63°F , 17°C
Dew Point: 57°F , 14°C
Humidity: 83%
Barometer: 29.93 inHg , 1013.5 hPa
Clouds: Mostly cloudy
Visibility: 10 miles , 16 km
Cloud details: Mostly cloudy 1200 ft
2019/07/18 14:54 KHWD 181454Z 00000KT 10SM BKN012 17/14 A2993 RMK AO2 SLP145 T01720139 53008
KOAK - Oakland, California, USA
Distance from station: SW 164mi, 264km
Updated: Thu, 18-Jul-2019 7:53am PDT
Overcast
Overcast
 Wind from N
Wind: N 3 mph , 6 km/h
Temperature: 63°F , 17°C
Dew Point: 55°F , 13°C
Humidity: 77%
Barometer: 29.94 inHg , 1013.9 hPa
Clouds: Overcast
Visibility: 10 miles , 16 km
Cloud details: Overcast 1100 ft
2019/07/18 14:53 KOAK 181453Z 36003KT 10SM OVC011 17/13 A2994 RMK AO2 SLP137 T01720133 53008 $
 
KWMC - Winnemucca, Nevada, USA
Distance from station: NE 164mi, 264km
Updated: Thu, 18-Jul-2019 7:56am PDT
Clear
Clear
 Wind from NNW
Wind: NNW 3 mph , 6 km/h
Temperature: 73°F , 23°C
Dew Point: 41°F , 5°C
Humidity: 31%
Barometer: 30.03 inHg , 1016.9 hPa
Clouds: Clear
Visibility: 10 miles , 16 km
2019/07/18 14:56 KWMC 181456Z AUTO 34003KT 10SM CLR 23/05 A3003 RMK AO2 SLP114 T02280050 51009
KDVO - Novato/Gnoss Fld, California, USA
Distance from station: WSW 165mi, 265km
Updated: Thu, 18-Jul-2019 8:35am PDT
Clear
Clear
 Wind from calm
Wind: Calm
Temperature: 63°F , 17°C
Dew Point: 57°F , 14°C
Humidity: 83%
Barometer: 29.93 inHg , 1013.5 hPa
Clouds: Clear
Visibility: 10 miles , 16 km
2019/07/18 15:35 KDVO 181535Z AUTO 00000KT 10SM CLR 17/14 A2993 RMK AO2
 
KO69 - Petaluma, California, USA
Distance from station: WSW 165mi, 265km
Updated: Thu, 18-Jul-2019 8:35am PDT
Clear
Clear
 Wind from calm
Wind: Calm
Temperature: 63°F , 17°C
Dew Point: 59°F , 15°C
Humidity: 88%
Barometer: 29.93 inHg , 1013.5 hPa
Clouds: Clear
Visibility: 9 miles , 14 km
2019/07/18 15:35 KO69 181535Z AUTO 00000KT 9SM CLR 17/15 A2993 RMK A01
KRHV - San Jose/Reid, California, USA
Distance from station: SW 165mi, 265km
Updated: Thu, 18-Jul-2019 7:59am PDT
Partly cloudy
Partly cloudy
 Wind from S
Wind: S 8 mph , 13 km/h
Temperature: 61°F , 16°C
Dew Point: 54°F , 12°C
Humidity: 77%
Barometer: 29.94 inHg , 1013.9 hPa
Clouds: Partly cloudy
Visibility: 10 miles , 16 km
Cloud details: Partly cloudy 8000 ft
2019/07/18 14:59 KRHV 181459Z 19007KT 10SM SCT080 16/12 A2994
 
KSJC - San Jose, California, USA
Distance from station: SW 166mi, 267km
Updated: Thu, 18-Jul-2019 7:53am PDT
Mostly cloudy
Mostly cloudy
 Wind from S
Wind: S 10 mph , 17 km/h
Temperature: 61°F , 16°C
Dew Point: 55°F , 13°C
Humidity: 83%
Barometer: 29.93 inHg , 1013.5 hPa
Clouds: Mostly cloudy
Visibility: 10 miles , 16 km
Cloud details: Few Clouds 500 ft
Mostly cloudy 10000 ft
Mostly cloudy 16000 ft
2019/07/18 14:53 KSJC 181453Z 17009KT 10SM FEW005 BKN100 BKN160 16/13 A2993 RMK AO2 SLP136 T01610128 53008
KE16 - San Martin, California, USA
Distance from station: SW 169mi, 273km
Updated: Thu, 18-Jul-2019 7:55am PDT
Overcast
Overcast
 Wind from SE
Wind: SE 12 mph , 19 km/h
Temperature: 57°F , 14°C
Dew Point: 54°F , 12°C
Humidity: 88%
Barometer: 29.98 inHg , 1015.2 hPa
Clouds: Overcast
Visibility: 10 miles , 16 km
Cloud details: Overcast 500 ft
2019/07/18 14:55 KE16 181455Z AUTO 14010KT 10SM OVC005 14/12 A2998 RMK AO2
 
KPAO - Palo Alto, California, USA
Distance from station: SW 169mi, 273km
Updated: Thu, 18-Jul-2019 7:47am PDT
Few Clouds
Few Clouds
 Wind from NNW
Wind: NNW 7 mph , 11 km/h
Temperature: 63°F , 17°C
Dew Point: 57°F , 14°C
Humidity: 83%
Barometer: 29.93 inHg , 1013.5 hPa
Clouds: Few Clouds
Visibility: 10 miles , 16 km
Cloud details: Few Clouds 1500 ft
2019/07/18 14:47 KPAO 181447Z 34006KT 10SM FEW015 17/14 A2993
KNUQ - Moffett Nas/Mtn, California, USA
Distance from station: SW 170mi, 273km
Updated: Thu, 18-Jul-2019 7:56am PDT
Clear
Clear
 Wind from ESE
Wind: ESE 5 mph , 7 km/h
Temperature: 64°F , 18°C
Dew Point: 55°F , 13°C
Humidity: 73%
Barometer: 29.94 inHg , 1013.9 hPa
Clouds: Clear
Visibility: 10 miles , 16 km
2019/07/18 14:56 KNUQ 181456Z 12004KT 10SM CLR 18/13 A2994 RMK AO2 SLP139 T01780128 53007 $
 
KRDD - Redding, California, USA
Distance from station: NW 171mi, 275km
Updated: Thu, 18-Jul-2019 7:53am PDT
Clear
Clear
 Wind from calm
Wind: Calm
Temperature: 79°F , 26°C
Dew Point: 61°F , 16°C
Humidity: 54%
Barometer: 29.87 inHg , 1011.5 hPa
Clouds: Clear
Visibility: 10 miles , 16 km
2019/07/18 14:53 KRDD 181453Z 00000KT 10SM CLR 26/16 A2987 RMK AO2 SLP106 T02610156 53009
KSTS - Santa Rosa, California, USA
Distance from station: WSW 171mi, 275km
Updated: Thu, 18-Jul-2019 7:53am PDT
Partly cloudy
Partly cloudy
 Wind from calm
Wind: Calm
Temperature: 57°F , 14°C
Dew Point: 54°F , 12°C
Humidity: 88%
Barometer: 29.92 inHg , 1013.2 hPa
Clouds: Partly cloudy
Visibility: 10 miles , 16 km
Cloud details: Few Clouds 1500 ft
Partly cloudy 25000 ft
2019/07/18 14:53 KSTS 181453Z 00000KT 10SM FEW015 SCT250 14/12 A2992 RMK AO2 SLP126 T01440117 53011
 
KSQL - San Carlos Airpo, California, USA
Distance from station: SW 173mi, 278km
Updated: Thu, 18-Jul-2019 7:59am PDT
Partly cloudy
Partly cloudy
 Wind from calm
Wind: Calm
Temperature: 63°F , 17°C
Dew Point: 55°F , 13°C
Humidity: 77%
Barometer: 29.94 inHg , 1013.9 hPa
Clouds: Partly cloudy
Visibility: 10 miles , 16 km
Cloud details: Few Clouds 1000 ft
Partly cloudy 20000 ft
2019/07/18 14:59 KSQL 181459Z 00000KT 10SM FEW010 SCT200 17/13 A2994
KCVH - Hollister Muni, California, USA
Distance from station: SSW 174mi, 280km
Updated: Thu, 18-Jul-2019 8:35am PDT
Overcast
Overcast
 Wind from calm
Wind: Calm
Temperature: 57°F , 14°C
Dew Point: 54°F , 12°C
Humidity: 88%
Barometer: 29.99 inHg , 1015.6 hPa
Clouds: Overcast
Visibility: 10 miles , 16 km
Cloud details: Overcast 700 ft
2019/07/18 15:35 KCVH 181535Z AUTO 00000KT 10SM OVC007 14/12 A2999 RMK A01
 
KSFO - San Francisco, California, USA
Distance from station: SW 174mi, 280km
Updated: Thu, 18-Jul-2019 7:56am PDT
Partly cloudy
Partly cloudy
 Wind from calm
Wind: Calm
Temperature: 64°F , 18°C
Dew Point: 54°F , 12°C
Humidity: 68%
Barometer: 29.93 inHg , 1013.5 hPa
Clouds: Partly cloudy
Visibility: 10 miles , 16 km
Cloud details: Few Clouds 800 ft
Partly cloudy 20000 ft
2019/07/18 14:56 KSFO 181456Z 00000KT 10SM FEW008 SCT200 18/12 A2993 RMK AO2 SLP135 T01780122 53009
KAAT - Alturas, California, USA
Distance from station: NNW 175mi, 281km
Updated: Thu, 18-Jul-2019 7:55am PDT
Clear
Clear
 Wind from calm
Wind: Calm
Temperature: 63°F , 17°C
Dew Point: 45°F , 7°C
Humidity: 52%
Barometer: 30.08 inHg , 1018.6 hPa
Clouds: Clear
Visibility: 10 miles , 16 km
2019/07/18 14:55 KAAT 181455Z AUTO 00000KT 10SM CLR 17/07 A3008 RMK AO2 SLP141 T01720072 51006
 
KBAM - Battle Mtn (vor), Nevada, USA
Distance from station: NE 182mi, 294km
Updated: Thu, 18-Jul-2019 8:35am PDT

 Wind from calm
Wind: Calm
Temperature: 75°F , 24°C
Dew Point: 41°F , 5°C
Humidity: 29%
Barometer: 30.04 inHg , 1017.3 hPa
Visibility: 10 miles , 16 km
2019/07/18 15:35 KBAM 181535Z AUTO 00000KT 10SM 24/05 A3004 RMK AO1
KHAF - Half Moon Bay, California, USA
Distance from station: SW 184mi, 296km
Updated: Thu, 18-Jul-2019 8:35am PDT
Mist, Overcast
Mist, Overcast
 Wind from SSE
Wind: SSE 8 mph , 13 km/h
Temperature: 55°F , 13°C
Dew Point: 55°F , 13°C
Humidity: 100%
Barometer: 29.97 inHg , 1014.9 hPa
Summary: Mist
Clouds: Overcast
Visibility: 1 mile , 2 km
Cloud details: Overcast 400 ft
2019/07/18 15:35 KHAF 181535Z AUTO 16007KT 1SM BR OVC004 13/13 A2997 RMK AO2
 
KWVI - Watsonville, California, USA
Distance from station: SW 184mi, 296km
Updated: Thu, 18-Jul-2019 7:53am PDT
Mist, Overcast
Mist, Overcast
 Wind from calm
Wind: Calm
Temperature: 55°F , 13°C
Dew Point: 54°F , 12°C
Humidity: 94%
Barometer: 29.98 inHg , 1015.2 hPa
Summary: Mist
Clouds: Overcast
Visibility: 4 miles , 6 km
Cloud details: Overcast 300 ft
2019/07/18 14:53 KWVI 181453Z AUTO 00000KT 4SM BR OVC003 13/12 A2998 RMK AO2 SLP152 T01330122 53008
KUKI - Ukiah, California, USA
Distance from station: W 187mi, 300km
Updated: Thu, 18-Jul-2019 7:56am PDT
Clear
Clear
 Wind from calm
Wind: Calm
Temperature: 64°F , 18°C
Dew Point: 54°F , 12°C
Humidity: 68%
Barometer: 29.90 inHg , 1012.5 hPa
Clouds: Clear
Visibility: 10 miles , 16 km
2019/07/18 14:56 KUKI 181456Z AUTO 00000KT 10SM CLR 18/12 A2990 RMK AO2 SLP118 T01830117 53005
 
KHJO - Hanford, California, USA
Distance from station: S 188mi, 303km
Updated: Thu, 18-Jul-2019 12:53am PDT
NOT Current
Clear
Clear
 Wind from calm
Wind: Calm
Temperature: 70°F , 21°C
Dew Point: 63°F , 17°C
Humidity: 78%
Barometer: 29.88 inHg , 1011.9 hPa
Clouds: Clear
Visibility: 10 miles , 16 km
2019/07/18 07:53 KHJO 180753Z AUTO 00000KT 10SM CLR 21/17 A2988 RMK AO2 SLP116 T02060167 403560178
KNLC - Lemoore Nas/Reev, California, USA
Distance from station: S 188mi, 303km
Updated: Thu, 18-Jul-2019 7:56am PDT
Partly cloudy
Partly cloudy
 Wind from calm
Wind: Calm
Temperature: 75°F , 24°C
Dew Point: 48°F , 9°C
Humidity: 39%
Barometer: 29.90 inHg , 1012.5 hPa
Clouds: Partly cloudy
Visibility: 10 miles , 16 km
Cloud details: Partly cloudy 23000 ft
2019/07/18 14:56 KNLC 181456Z 00000KT 10SM SCT230 24/09 A2990 RMK AO2 SLP123 RH/39 T02390094 53007
 
KVIS - Visalia Muni, California, USA
Distance from station: S 189mi, 304km
Updated: Thu, 18-Jul-2019 7:56am PDT
Clear
Clear
 Wind from SE
Wind: SE 5 mph , 7 km/h
Temperature: 72°F , 22°C
Dew Point: 48°F , 9°C
Humidity: 44%
Barometer: 29.91 inHg , 1012.9 hPa
Clouds: Clear
Visibility: 10 miles , 16 km
2019/07/18 14:56 KVIS 181456Z AUTO 14004KT 10SM CLR 22/09 A2991 RMK AO2 SLP130 T02170094 53006
KSNS - Salinas, California, USA
Distance from station: SSW 193mi, 311km
Updated: Thu, 18-Jul-2019 7:53am PDT
Overcast
Overcast
 Wind from ESE
Wind: ESE 5 mph , 7 km/h
Temperature: 57°F , 14°C
Dew Point: 54°F , 12°C
Humidity: 88%
Barometer: 29.98 inHg , 1015.2 hPa
Clouds: Overcast
Visibility: 8 miles , 13 km
Cloud details: Overcast 600 ft
2019/07/18 14:53 KSNS 181453Z 12004KT 8SM OVC006 14/12 A2998 RMK AO2 SLP159 T01390117 53008
 
K05U - Eureka, Nevada, USA
Distance from station: ENE 203mi, 326km
Updated: Thu, 18-Jul-2019 8:35am PDT
Clear
Clear
 Wind from calm
Wind: Calm
Temperature: 79°F , 26°C
Dew Point: 34°F , 1°C
Humidity: 20%
Barometer: 30.15 inHg , 1021 hPa
Clouds: Clear
Visibility: 10 miles , 16 km
2019/07/18 15:35 K05U 181535Z AUTO 00000KT 10SM CLR 26/01 A3015 RMK A01
KP68 - Eureka, Nevada, USA
Distance from station: ENE 203mi, 326km
Updated: Thu, 18-Jul-2019 7:53am PDT

 Wind from SW
Wind: SW 6 mph , 9 km/h
Temperature: 72°F , 22°C
Dew Point: 36°F , 2°C
Humidity: 27%
Barometer: 30.12 inHg , 1020 hPa
2019/07/18 14:53 KP68 181453Z AUTO 23005KT 22/02 A3012 RMK AO1 SLP104 T02170017 51003
 
KMRY - Monterey, California, USA
Distance from station: SW 206mi, 331km
Updated: Thu, 18-Jul-2019 7:54am PDT
Overcast
Overcast
 Wind from calm
Wind: Calm
Temperature: 57°F , 14°C
Dew Point: 52°F , 11°C
Humidity: 82%
Barometer: 29.98 inHg , 1015.2 hPa
Clouds: Overcast
Visibility: 10 miles , 16 km
Cloud details: Overcast 700 ft
2019/07/18 14:54 KMRY 181454Z 00000KT 10SM OVC007 14/11 A2998 RMK AO2 SLP165 T01440111 53008
KO54 - Weaverville, California, USA
Distance from station: NW 207mi, 332km
Updated: Thu, 18-Jul-2019 8:35am PDT
Clear
Clear
 Wind from S
Wind: S 3 mph , 6 km/h
Temperature: 64°F , 18°C
Dew Point: 50°F , 10°C
Humidity: 60%
Barometer: 30.01 inHg , 1016.3 hPa
Clouds: Clear
Visibility: 10 miles , 16 km
2019/07/18 15:35 KO54 181535Z AUTO 18003KT 10SM CLR 18/10 A3001 RMK AO1
 
KO86 - Trinity Center, California, USA
Distance from station: NW 207mi, 333km
Updated: Thu, 18-Jul-2019 8:30am PDT

 Wind from ENE
Wind: ENE 3 mph , 6 km/h
Temperature: 66°F , 19°C
Dew Point: 54°F , 12°C
Humidity: 64%
Barometer: 30.00 inHg , 1015.9 hPa
Visibility: 10 miles , 16 km
2019/07/18 15:30 KO86 181530Z AUTO 07003KT 10SM 19/12 A3000 RMK AO1
KMHS - Mount Shasta, California, USA
Distance from station: NW 209mi, 336km
Updated: Thu, 18-Jul-2019 7:56am PDT
Clear
Clear
 Wind from calm
Wind: Calm
Temperature: 64°F , 18°C
Dew Point: 54°F , 12°C
Humidity: 68%
Barometer: 30.03 inHg , 1016.9 hPa
Clouds: Clear
Visibility: 10 miles , 16 km
2019/07/18 14:56 KMHS 181456Z AUTO 00000KT 10SM CLR 18/12 A3003 RMK AO2 SLP156 T01780117 51006
 
KPTV - Porterville, California, USA
Distance from station: S 212mi, 341km
Updated: Thu, 18-Jul-2019 6:56am PDT
NOT Current
Clear
Clear
 Wind from SE
Wind: SE 5 mph , 7 km/h
Temperature: 68°F , 20°C
Dew Point: 46°F , 8°C
Humidity: 46%
Barometer: 29.91 inHg , 1012.9 hPa
Clouds: Clear
Visibility: 10 miles , 16 km
2019/07/18 13:56 KPTV 181356Z AUTO 14004KT 10SM CLR 20/08 A2991 RMK AO2 SLP133 T02000078
KLKV - Lakeview, Oregon, USA
Distance from station: N 219mi, 353km
Updated: Thu, 18-Jul-2019 7:53am PDT
Clear
Clear
 Wind from SE
Wind: SE 3 mph , 6 km/h
Temperature: 61°F , 16°C
Dew Point: 48°F , 9°C
Humidity: 63%
Barometer: 30.09 inHg , 1019 hPa
Clouds: Clear
Visibility: 10 miles , 16 km
2019/07/18 14:53 KLKV 181453Z AUTO 14003KT 10SM CLR 16/09 A3009 RMK AO2 SLP151 T01560089 52007
 
KSIY - Montague/Siskiyo, California, USA
Distance from station: NW 237mi, 382km
Updated: Thu, 18-Jul-2019 7:53am PDT
Clear
Clear
 Wind from N
Wind: N 13 mph , 20 km/h
Temperature: 66°F , 19°C
Dew Point: 54°F , 12°C
Humidity: 64%
Barometer: 30.03 inHg , 1016.9 hPa
Clouds: Clear
Visibility: 10 miles , 16 km
2019/07/18 14:53 KSIY 181453Z AUTO 01011KT 10SM CLR 19/12 A3003 RMK AO2 SLP154 T01940117 53007
KPRB - Paso Robles, California, USA
Distance from station: SSW 238mi, 383km
Updated: Thu, 18-Jul-2019 7:53am PDT
Clear
Clear
 Wind from calm
Wind: Calm
Temperature: 61°F , 16°C
Dew Point: 52°F , 11°C
Humidity: 72%
Barometer: 29.97 inHg , 1014.9 hPa
Clouds: Clear
Visibility: 10 miles , 16 km
2019/07/18 14:53 KPRB 181453Z AUTO 00000KT 10SM CLR 16/11 A2997 RMK AO2 SLP144 T01560111 51007
 
KLMT - Klamath Falls, Oregon, USA
Distance from station: NNW 239mi, 385km
Updated: Thu, 18-Jul-2019 7:53am PDT
Few Clouds
Few Clouds
 Wind from calm
Wind: Calm
Temperature: 61°F , 16°C
Dew Point: 52°F , 11°C
Humidity: 72%
Barometer: 30.06 inHg , 1017.9 hPa
Clouds: Few Clouds
Visibility: 10 miles , 16 km
Cloud details: Few Clouds 4000 ft
2019/07/18 14:53 KLMT 181453Z 00000KT 10SM FEW040 16/11 A3006 RMK AO2 SLP139 T01560111 53004
KEKO - Elko, Nevada, USA
Distance from station: ENE 242mi, 390km
Updated: Thu, 18-Jul-2019 7:56am PDT
Clear
Clear
 Wind from WSW
Wind: WSW 5 mph , 7 km/h
Temperature: 66°F , 19°C
Dew Point: 41°F , 5°C
Humidity: 40%
Barometer: 30.06 inHg , 1017.9 hPa
Clouds: Clear
Visibility: 10 miles , 16 km
2019/07/18 14:56 KEKO 181456Z AUTO 25004KT 10SM CLR 19/05 A3006 RMK AO2 SLP117 T01940050 51006
 
KBFL - Bakersfield, California, USA
Distance from station: S 252mi, 405km
Updated: Thu, 18-Jul-2019 7:54am PDT
Clear
Clear
 Wind from calm
Wind: Calm
Temperature: 81°F , 27°C
Dew Point: 39°F , 4°C
Humidity: 23%
Barometer: 29.91 inHg , 1012.9 hPa
Clouds: Clear
Visibility: 10 miles , 16 km
2019/07/18 14:54 KBFL 181454Z 00000KT 10SM CLR 27/04 A2991 RMK AO2 SLP119 T02670044 51007
KFOT - Fortuna, California, USA
Distance from station: WNW 256mi, 413km
Updated: Thu, 18-Jul-2019 8:30am PDT
Overcast
Overcast
 Wind from WNW
Wind: WNW 12 mph , 19 km/h
Temperature: 61°F , 16°C
Dew Point: 61°F , 16°C
Humidity: 100%
Barometer: 30.00 inHg , 1015.9 hPa
Clouds: Overcast
Visibility: 10 miles , 16 km
Cloud details: Overcast 300 ft
2019/07/18 15:30 KFOT 181530Z AUTO 29010KT 10SM OVC003 16/16 A3000 RMK AO1
 
KNID - China Lake (naf), California, USA
Distance from station: SSE 259mi, 417km
Updated: Thu, 18-Jul-2019 7:56am PDT
Clear
Clear
 Wind from WSW
Wind: WSW 9 mph , 15 km/h
Temperature: 82°F , 28°C
Dew Point: 46°F , 8°C
Humidity: 28%
Barometer: 29.95 inHg , 1014.2 hPa
Clouds: Clear
Visibility: 10 miles , 16 km
2019/07/18 14:56 KNID 181456Z 24008KT 10SM CLR 28/08 A2995 RMK SLPNO T02800078
KDRA - Desert R/Mercury, Nevada, USA
Distance from station: SE 262mi, 421km
Updated: Thu, 18-Jul-2019 7:53am PDT
Clear
Clear
 Wind from calm
Wind: Calm
Temperature: 82°F , 28°C
Dew Point: 37°F , 3°C
Humidity: 20%
Barometer: 30.00 inHg , 1015.9 hPa
Clouds: Clear
Visibility: 10 miles , 16 km
2019/07/18 14:53 KDRA 181453Z AUTO 00000KT 10SM CLR 28/03 A3000 RMK AO2 SLP103 T02780028 51012 $
 
KELY - Ely, Nevada, USA
Distance from station: E 262mi, 421km
Updated: Thu, 18-Jul-2019 7:53am PDT
Clear
Clear
 Wind from SSW
Wind: SSW 12 mph , 19 km/h
Temperature: 72°F , 22°C
Dew Point: 28°F , -2°C
Humidity: 20%
Barometer: 30.18 inHg , 1022 hPa
Clouds: Clear
Visibility: 10 miles , 16 km
2019/07/18 14:53 KELY 181453Z AUTO 21010KT 10SM CLR 22/M02 A3018 RMK AO2 SLP107 T02221017 53005
KREO - Rome, Oregon, USA
Distance from station: NNE 263mi, 424km
Updated: Thu, 18-Jul-2019 7:52am PDT

 Wind from ENE
Wind: ENE 9 mph , 15 km/h
Temperature: 70°F , 21°C
Dew Point: 46°F , 8°C
Humidity: 43%
Barometer: 30.04 inHg , 1017.3 hPa
2019/07/18 14:52 KREO 181452Z AUTO 06008KT 21/08 A3004 RMK AO1 SLP126 T02110078 51012
 
KACV - Arcata/Eureka, California, USA
Distance from station: WNW 268mi, 431km
Updated: Thu, 18-Jul-2019 8:39am PDT
Mist, Overcast
Mist, Overcast
 Wind from N
Wind: N 5 mph , 7 km/h
Temperature: 61°F , 16°C
Dew Point: 61°F , 16°C
Humidity: 100%
Barometer: 29.98 inHg , 1015.2 hPa
Summary: Mist
Clouds: Overcast
Visibility: 1 mile , 2 km
Cloud details: Overcast 200 ft
2019/07/18 15:39 KACV 181539Z AUTO 35004KT 1SM R32/1400V2600FT BR VV002 16/16 A2998 RMK AO2 T01610161
KSBP - San Luis Obispo, California, USA
Distance from station: S 268mi, 431km
Updated: Thu, 18-Jul-2019 7:56am PDT
Overcast
Overcast
 Wind from calm
Wind: Calm
Temperature: 57°F , 14°C
Dew Point: 54°F , 12°C
Humidity: 88%
Barometer: 29.99 inHg , 1015.6 hPa
Clouds: Overcast
Visibility: 8 miles , 13 km
Cloud details: Overcast 600 ft
2019/07/18 14:56 KSBP 181456Z 00000KT 8SM OVC006 14/12 A2999 RMK AO2 SLP155 T01390122 53012
 
KINS - Indian Springs, Nevada, USA
Distance from station: SE 279mi, 449km
Updated: Thu, 18-Jul-2019 7:58am PDT
Clear
Clear
 Wind from calm
Wind: Calm
Temperature: 77°F , 25°C
Dew Point: 23°F , -5°C
Humidity: 13%
Barometer: 29.98 inHg , 1015.2 hPa
Clouds: Clear
Visibility: 10 miles , 16 km
2019/07/18 14:58 KINS 181458Z AUTO 00000KT 10SM CLR 25/M05 A2998 RMK AO2 SLPNO T02501054 $
KTSP - Tehachapi, California, USA
Distance from station: SSE 279mi, 449km
Updated: Thu, 18-Jul-2019 8:35am PDT
Clear
Clear
 Wind from W
Wind: W 3 mph , 6 km/h
Temperature: 72°F , 22°C
Dew Point: 43°F , 6°C
Humidity: 36%
Barometer: 30.09 inHg , 1019 hPa
Clouds: Clear
Visibility: 10 miles , 16 km
2019/07/18 15:35 KTSP 181535Z AUTO 28003KT 10SM CLR 22/06 A3009 RMK AO2
 
KMFR - Medford, Oregon, USA
Distance from station: NW 284mi, 457km
Updated: Thu, 18-Jul-2019 7:53am PDT
Mostly cloudy
Mostly cloudy
 Wind from NW
Wind: NW 5 mph , 7 km/h
Temperature: 68°F , 20°C
Dew Point: 55°F , 13°C
Humidity: 64%
Barometer: 30.02 inHg , 1016.6 hPa
Clouds: Mostly cloudy
Visibility: 10 miles , 16 km
Cloud details: Mostly cloudy 5500 ft
2019/07/18 14:53 KMFR 181453Z 32004KT 10SM BKN055 20/13 A3002 RMK AO2 SLP152 T02000128 53007
KMHV - Mojave, California, USA
Distance from station: SSE 288mi, 463km
Updated: Thu, 18-Jul-2019 8:40am PDT
Clear
Clear
 Wind from SSW
Wind: SSW 16 mph , 26 km/h
Temperature: 79°F , 26°C
Dew Point: 46°F , 8°C
Humidity: 32%
Barometer: 30.00 inHg , 1015.9 hPa
Clouds: Clear
Visibility: 10 miles , 16 km
2019/07/18 15:40 KMHV 181540Z AUTO 21014KT 10SM CLR 26/08 A3000 RMK A01
 
KSMX - Santa Maria, California, USA
Distance from station: S 289mi, 465km
Updated: Thu, 18-Jul-2019 7:51am PDT
Mist, Overcast
Mist, Overcast
 Wind from calm
Wind: Calm
Temperature: 61°F , 16°C
Dew Point: 57°F , 14°C
Humidity: 88%
Barometer: 29.99 inHg , 1015.6 hPa
Summary: Mist
Clouds: Overcast
Visibility: 4 miles , 6 km
Cloud details: Overcast 500 ft
2019/07/18 14:51 KSMX 181451Z 00000KT 4SM BR OVC005 16/14 A2999 RMK AO2 SLP156 T01560144 $
K9L2 - Edwards N-Aux, California, USA
Distance from station: SSE 299mi, 482km
Updated: Sun, 07-Jul-2019 11:31am PDT
NOT Current
Clear
Clear
 Wind from SW
Wind: SW 13 mph , 20 km/h, Gust: 23 mph , 37 km/h
Temperature: 90°F , 32°C
Dew Point: 37°F , 3°C
Humidity: 16%
Barometer: 29.91 inHg , 1012.9 hPa
Clouds: Clear
Visibility: 9 miles , 14 km
2019/07/07 18:31 K9L2 071831Z AUTO 23011G20KT 9SM CLR 32/03 A2991 RMK AO2 WSHFT 26 SLP101
Honor Flight NV - Honoring all of our Veterans CoCoRaHS (Community Collaborative Rain, Hail and Snow Network) Station Number: NV-DG-2 Live Lightning Map - USA Reno Skywarn Spotter ID: DO21 AlertID Southwestern Weather Network Carson Valley Community Food Closet - providing for the needs of our community